Time;durP1;ratioP1;P1;durP2;ratioP2;P2;SDS_P1;SDS_P2;PMS_P1;PMS_P2;Temp;Humidity;BMP_temperature;BMP_pressure;BME280_temperature;BME280_humidity;BME280_pressure;Samples;Min_cycle;Max_cycle;Signal;HPM_P1;HPM_P2
2021/07/12 00:02:40;;;;;;;13.52;11.77;;;;;;;24.42;100.00;100945.00;5100406;28;20035;-80
2021/07/12 00:05:26;;;;;;;13.77;12.43;;;;;;;24.68;100.00;100952.97;5115109;28;20031;-80
2021/07/12 00:08:12;;;;;;;13.80;12.38;;;;;;;24.04;100.00;100949.53;5100882;28;20110;-79
2021/07/12 00:10:58;;;;;;;15.23;12.50;;;;;;;23.94;100.00;100935.06;5115760;28;20037;-79
2021/07/12 00:13:44;;;;;;;17.52;13.25;;;;;;;24.19;100.00;100943.94;5115239;28;20023;-80
2021/07/12 00:16:30;;;;;;;16.27;13.45;;;;;;;23.97;100.00;100940.19;5114793;28;20035;-79
2021/07/12 00:19:16;;;;;;;14.05;12.60;;;;;;;24.02;100.00;100946.09;5115502;28;20023;-79
2021/07/12 00:22:02;;;;;;;14.75;12.68;;;;;;;23.90;100.00;100934.38;5115027;28;20416;-80
2021/07/12 00:24:47;;;;;;;14.80;12.55;;;;;;;24.20;100.00;100936.78;5114587;28;20357;-79
2021/07/12 00:27:35;;;;;;;15.07;12.05;;;;;;;24.31;100.00;100934.22;5100616;28;20140;-79
2021/07/12 00:30:22;;;;;;;15.80;13.43;;;;;;;24.26;100.00;100945.25;5114902;28;20505;-80
2021/07/12 00:33:08;;;;;;;15.50;13.27;;;;;;;23.89;100.00;100946.06;5114090;28;20215;-79
2021/07/12 00:35:54;;;;;;;14.88;13.25;;;;;;;24.16;100.00;100951.34;5114406;28;20039;-80
2021/07/12 00:38:39;;;;;;;15.32;13.48;;;;;;;24.15;100.00;100945.13;5114064;28;20027;-80
2021/07/12 00:41:25;;;;;;;17.98;13.40;;;;;;;24.07;100.00;100947.47;5114350;28;20130;-80
2021/07/12 00:44:11;;;;;;;17.13;13.10;;;;;;;24.06;100.00;100940.41;5100255;28;20069;-80
2021/07/12 00:46:57;;;;;;;16.52;13.60;;;;;;;24.02;100.00;100938.91;5114740;28;20505;-80
2021/07/12 00:49:43;;;;;;;15.82;12.95;;;;;;;24.12;100.00;100933.78;5114465;28;20045;-80
2021/07/12 00:52:29;;;;;;;15.65;12.98;;;;;;;23.71;100.00;100928.56;5099981;28;20038;-80
2021/07/12 00:55:23;;;;;;;15.50;12.60;;;;;;;24.04;100.00;100930.78;5099438;28;20470;-80
2021/07/12 00:58:12;;;;;;;16.40;12.38;;;;;;;23.95;100.00;100936.78;5100690;28;20045;-80
2021/07/12 01:01:00;;;;;;;15.25;12.82;;;;;;;24.18;100.00;100941.41;5100577;28;20023;-80
2021/07/12 01:03:47;;;;;;;16.52;12.98;;;;;;;24.11;100.00;100948.16;5113803;28;20418;-80
2021/07/12 01:06:32;;;;;;;18.40;12.80;;;;;;;24.00;100.00;100943.53;5114429;28;20098;-80
2021/07/12 01:09:18;;;;;;;19.25;13.07;;;;;;;24.31;100.00;100950.28;5113676;28;20039;-80
2021/07/12 01:12:13;;;;;;;17.77;12.98;;;;;;;24.04;100.00;100946.84;5099293;28;20032;-80
2021/07/12 01:15:08;;;;;;;17.45;12.80;;;;;;;24.01;100.00;100949.72;5113610;28;20023;-80
2021/07/12 01:18:06;;;;;;;17.08;13.50;;;;;;;24.02;100.00;100952.31;5114001;28;20027;-80
2021/07/12 01:21:12;;;;;;;17.30;12.38;;;;;;;24.16;100.00;100959.38;5113557;28;20119;-80
2021/07/12 01:24:17;;;;;;;19.48;13.55;;;;;;;23.66;100.00;100961.97;5099417;28;20072;-80
2021/07/12 01:27:18;;;;;;;15.23;13.45;;;;;;;23.68;100.00;100962.69;5099584;28;20031;-80
2021/07/12 01:30:17;;;;;;;16.67;13.23;;;;;;;23.80;100.00;100956.53;5113908;28;20089;-80
2021/07/12 01:33:16;;;;;;;15.32;13.52;;;;;;;23.72;100.00;100945.47;5100230;28;20034;-80
2021/07/12 01:36:20;;;;;;;16.38;13.65;;;;;;;23.69;100.00;100943.88;5099919;28;20440;-80
2021/07/12 01:39:21;;;;;;;16.27;13.93;;;;;;;23.31;100.00;100940.25;5113343;28;20114;-80
2021/07/12 01:42:12;;;;;;;18.33;14.50;;;;;;;23.56;100.00;100934.97;5099313;28;20451;-80
2021/07/12 01:45:12;;;;;;;26.88;14.48;;;;;;;23.55;100.00;100935.94;5099619;28;20139;-80
2021/07/12 01:48:10;;;;;;;21.73;14.20;;;;;;;23.13;100.00;100936.94;5100791;28;20444;-80
2021/07/12 01:51:00;;;;;;;19.27;14.52;;;;;;;23.63;100.00;100938.97;5113243;28;20042;-80
2021/07/12 01:53:55;;;;;;;17.80;14.55;;;;;;;23.48;100.00;100944.47;5113620;28;20051;-80
2021/07/12 01:56:52;;;;;;;15.73;13.95;;;;;;;23.66;100.00;100944.06;5113139;28;20101;-80
2021/07/12 01:59:51;;;;;;;16.65;13.90;;;;;;;23.62;100.00;100937.22;5113543;28;20114;-80
2021/07/12 02:02:44;;;;;;;16.77;13.73;;;;;;;23.61;100.00;100935.50;5098809;28;20360;-80
2021/07/12 02:05:33;;;;;;;19.58;13.80;;;;;;;23.33;100.00;100946.34;5114606;28;20028;-80
2021/07/12 02:08:22;;;;;;;15.43;13.82;;;;;;;23.26;100.00;100935.19;5113119;28;20490;-80
2021/07/12 02:11:09;;;;;;;18.02;14.45;;;;;;;23.70;100.00;100937.56;5113467;28;20069;-80
2021/07/12 02:13:55;;;;;;;19.35;14.38;;;;;;;23.53;100.00;100935.16;5113219;28;20028;-80
2021/07/12 02:16:42;;;;;;;15.45;13.88;;;;;;;23.61;100.00;100943.53;5101263;28;20355;-80
2021/07/12 02:19:31;;;;;;;17.10;14.05;;;;;;;23.48;100.00;100936.44;5117052;28;20460;-80
2021/07/12 02:22:18;;;;;;;15.80;13.75;;;;;;;23.59;100.00;100939.25;5117307;28;20106;-80
2021/07/12 02:25:06;;;;;;;16.20;13.73;;;;;;;23.73;100.00;100931.13;5103325;28;20370;-80
2021/07/12 02:27:53;;;;;;;17.25;14.00;;;;;;;23.74;100.00;100935.53;5116715;28;20364;-80
2021/07/12 02:30:40;;;;;;;17.15;15.32;;;;;;;23.83;100.00;100932.25;5117126;28;20043;-80
2021/07/12 02:33:27;;;;;;;15.93;14.02;;;;;;;23.44;100.00;100931.28;5116551;28;20019;-80
2021/07/12 02:36:13;;;;;;;15.98;13.88;;;;;;;23.52;100.00;100930.78;5116772;28;20042;-80
2021/07/12 02:39:01;;;;;;;17.48;13.30;;;;;;;23.46;100.00;100935.69;5116357;28;20027;-80
2021/07/12 02:41:48;;;;;;;16.85;13.35;;;;;;;23.69;100.00;100945.69;5117818;28;20024;-80
2021/07/12 02:44:35;;;;;;;14.38;12.88;;;;;;;23.51;100.00;100941.59;5101893;28;20144;-80
2021/07/12 02:47:20;;;;;;;15.20;13.35;;;;;;;23.43;100.00;100940.28;5118198;27;20031;-80
2021/07/12 02:50:09;;;;;;;15.90;12.80;;;;;;;23.30;100.00;100936.72;5116899;28;20024;-80
2021/07/12 02:53:04;;;;;;;17.08;12.98;;;;;;;23.78;100.00;100943.25;5116464;28;20039;-80
2021/07/12 02:55:50;;;;;;;15.35;13.68;;;;;;;23.87;100.00;100944.44;5101632;28;20163;-80
2021/07/12 02:58:37;;;;;;;19.27;15.32;;;;;;;23.61;100.00;100937.31;5116437;28;20023;-80
2021/07/12 03:01:23;;;;;;;20.45;16.98;;;;;;;23.84;100.00;100934.81;5115997;28;20035;-80
2021/07/12 03:04:09;;;;;;;21.05;18.15;;;;;;;23.70;100.00;100942.06;5102249;28;20376;-80
2021/07/12 03:06:57;;;;;;;21.75;17.75;;;;;;;23.46;100.00;100938.38;5116502;28;20026;-80
2021/07/12 03:09:46;;;;;;;26.52;17.92;;;;;;;23.41;100.00;100930.63;5101571;28;20019;-80
2021/07/12 03:12:41;;;;;;;19.95;17.27;;;;;;;23.06;100.00;100935.63;5116358;28;20469;-80
2021/07/12 03:15:40;;;;;;;19.38;16.70;;;;;;;23.02;100.00;100934.09;5101875;28;20034;-80
2021/07/12 03:18:31;;;;;;;19.40;16.45;;;;;;;23.43;100.00;100939.44;5115949;28;20084;-80
2021/07/12 03:21:20;;;;;;;23.67;16.90;;;;;;;23.45;100.00;100932.16;5115821;28;20055;-80
2021/07/12 03:24:07;;;;;;;20.45;16.40;;;;;;;23.56;100.00;100944.81;5115710;28;20143;-80
2021/07/12 03:26:54;;;;;;;21.88;16.92;;;;;;;23.39;100.00;100943.28;5101342;28;20360;-80
2021/07/12 03:29:41;;;;;;;24.02;17.50;;;;;;;23.50;100.00;100954.09;5115965;28;20039;-80
2021/07/12 03:32:30;;;;;;;40.78;19.25;;;;;;;23.44;100.00;100958.03;5115636;28;20027;-80
2021/07/12 03:35:18;;;;;;;26.30;21.67;;;;;;;23.38;100.00;100962.94;5102490;28;20023;-80
2021/07/12 03:38:04;;;;;;;33.42;25.15;;;;;;;23.52;100.00;100974.41;5116113;28;20024;-80
2021/07/12 03:40:51;;;;;;;25.17;21.80;;;;;;;23.58;100.00;100970.50;5101987;28;20023;-80
2021/07/12 03:43:40;;;;;;;31.73;24.83;;;;;;;23.33;100.00;100971.28;5116211;28;20527;-80
2021/07/12 03:46:26;;;;;;;29.13;22.33;;;;;;;23.42;100.00;100969.78;5115639;28;20118;-80
2021/07/12 03:49:14;;;;;;;27.40;22.33;;;;;;;23.50;100.00;100961.28;5115310;28;20051;-80
2021/07/12 03:52:00;;;;;;;26.23;22.02;;;;;;;22.94;100.00;100971.16;5115653;28;20448;-80
2021/07/12 03:54:45;;;;;;;26.77;22.05;;;;;;;23.33;100.00;100965.94;5115438;28;20074;-80
2021/07/12 03:57:31;;;;;;;26.30;20.60;;;;;;;23.23;100.00;100970.16;5100044;28;20031;-80
2021/07/12 04:00:20;;;;;;;27.42;21.88;;;;;;;23.30;100.00;100975.94;5115103;28;20031;-80
2021/07/12 04:03:06;;;;;;;25.88;20.90;;;;;;;23.20;100.00;100978.38;5115266;28;20119;-80
2021/07/12 04:05:52;;;;;;;27.77;20.50;;;;;;;23.53;100.00;100983.31;5115987;28;20019;-80
2021/07/12 04:08:37;;;;;;;25.80;23.08;;;;;;;23.23;100.00;100978.16;5115171;28;20020;-80
2021/07/12 04:11:29;;;;;;;26.38;20.60;;;;;;;23.47;100.00;100967.69;5114797;28;20023;-80
2021/07/12 04:14:16;;;;;;;28.40;24.40;;;;;;;23.39;100.00;100972.69;5114465;28;20023;-80
2021/07/12 04:17:02;;;;;;;26.27;22.35;;;;;;;23.40;100.00;100983.25;5115181;28;20055;-80
2021/07/12 04:19:48;;;;;;;30.73;24.25;;;;;;;23.57;100.00;100971.47;5114395;28;20354;-80
2021/07/12 04:22:34;;;;;;;29.25;26.10;;;;;;;23.01;100.00;100963.59;5114699;28;20024;-80
2021/07/12 04:25:20;;;;;;;28.17;23.25;;;;;;;23.23;100.00;100970.16;5114741;28;20020;-80
2021/07/12 04:28:06;;;;;;;28.15;22.52;;;;;;;23.42;100.00;100979.66;5114884;28;20020;-80
2021/07/12 04:30:51;;;;;;;25.23;22.45;;;;;;;23.35;100.00;100976.53;5115045;28;20019;-80
2021/07/12 04:33:37;;;;;;;25.48;22.83;;;;;;;23.61;100.00;100983.66;5114250;28;20024;-82
2021/07/12 04:36:24;;;;;;;26.83;23.30;;;;;;;23.71;100.00;100981.25;5114746;28;20027;-80
2021/07/12 04:39:10;;;;;;;29.35;24.88;;;;;;;23.70;100.00;100984.88;5113956;28;20055;-80
2021/07/12 04:41:56;;;;;;;28.58;24.30;;;;;;;23.86;100.00;100980.22;5115133;28;20065;-80
2021/07/12 04:44:42;;;;;;;30.90;25.05;;;;;;;23.71;100.00;100984.75;5114562;28;20096;-80
2021/07/12 04:47:29;;;;;;;30.55;25.23;;;;;;;23.94;100.00;100985.94;5115823;28;20023;-80
2021/07/12 04:50:15;;;;;;;29.48;24.67;;;;;;;23.93;100.00;100987.75;5113563;28;20098;-80
2021/07/12 04:53:00;;;;;;;35.25;26.40;;;;;;;24.03;100.00;100993.31;5114368;28;20027;-77
2021/07/12 04:55:46;;;;;;;32.38;26.80;;;;;;;24.17;100.00;100995.91;5113752;28;20044;-80
2021/07/12 04:58:35;;;;;;;30.15;25.95;;;;;;;24.08;100.00;100991.19;5114560;28;20478;-80
2021/07/12 05:01:21;;;;;;;30.13;26.42;;;;;;;24.26;100.00;100990.75;5114640;28;20467;-80
2021/07/12 05:04:08;;;;;;;31.35;24.25;;;;;;;24.49;100.00;100990.03;5100209;28;20023;-80
2021/07/12 05:06:54;;;;;;;30.98;24.55;;;;;;;24.29;100.00;100997.72;5114851;28;20023;-80
2021/07/12 05:09:40;;;;;;;28.45;25.45;;;;;;;24.14;100.00;100996.13;5114414;28;20037;-80
2021/07/12 05:12:26;;;;;;;26.13;23.00;;;;;;;24.39;100.00;100993.47;5113894;28;20035;-79
2021/07/12 05:15:12;;;;;;;29.45;23.33;;;;;;;24.28;100.00;100991.53;5114071;28;20055;-79
2021/07/12 05:17:58;;;;;;;23.55;20.40;;;;;;;24.65;100.00;100990.69;5114008;28;20114;-79
2021/07/12 05:20:44;;;;;;;26.33;22.05;;;;;;;24.21;100.00;100994.72;5099799;28;20114;-80
2021/07/12 05:23:30;;;;;;;22.77;20.33;;;;;;;24.49;100.00;101002.56;5113611;28;20027;-80
2021/07/12 05:26:16;;;;;;;26.60;21.17;;;;;;;24.60;100.00;100991.94;5113552;28;20024;-79
2021/07/12 05:29:01;;;;;;;25.65;20.00;;;;;;;24.82;100.00;100989.47;5099991;28;20047;-81
2021/07/12 05:31:48;;;;;;;24.17;20.45;;;;;;;24.77;100.00;100992.50;5114521;28;20023;-80
2021/07/12 05:34:34;;;;;;;20.92;18.15;;;;;;;25.37;100.00;100997.91;5113970;28;20114;-80
2021/07/12 05:37:20;;;;;;;23.77;19.55;;;;;;;24.96;100.00;100997.38;5113752;28;20023;-80
2021/07/12 05:40:07;;;;;;;26.35;19.08;;;;;;;25.12;100.00;100993.47;5114196;28;20029;-80
2021/07/12 05:42:52;;;;;;;29.42;21.35;;;;;;;25.29;100.00;100987.78;5113614;28;20114;-80
2021/07/12 05:45:38;;;;;;;29.38;20.80;;;;;;;25.51;100.00;100990.56;5113693;28;20042;-80
2021/07/12 05:48:24;;;;;;;27.60;21.75;;;;;;;25.43;100.00;100989.44;5113669;28;20023;-80
2021/07/12 05:51:10;;;;;;;31.00;22.48;;;;;;;25.33;100.00;100988.38;5116027;28;20394;-80
2021/07/12 05:53:55;;;;;;;22.92;19.20;;;;;;;25.69;100.00;100993.69;5117173;28;20031;-80
2021/07/12 05:56:41;;;;;;;23.25;19.38;;;;;;;25.85;100.00;100988.88;5117266;28;20039;-80
2021/07/12 05:59:27;;;;;;;30.52;21.92;;;;;;;25.26;100.00;100987.94;5103281;28;20039;-79
2021/07/12 06:02:13;;;;;;;30.67;22.38;;;;;;;25.63;100.00;101000.38;5117476;28;20027;-80
2021/07/12 06:04:59;;;;;;;23.85;20.42;;;;;;;25.55;100.00;100997.41;5116973;28;20062;-80
2021/07/12 06:07:45;;;;;;;19.88;17.52;;;;;;;25.81;100.00;100999.00;5117586;28;20425;-80
2021/07/12 06:10:31;;;;;;;24.30;17.30;;;;;;;25.90;100.00;100995.59;5117426;28;20019;-80
2021/07/12 06:13:16;;;;;;;22.80;18.17;;;;;;;25.72;100.00;100999.66;5117196;28;20367;-80
2021/07/12 06:16:02;;;;;;;22.17;16.63;;;;;;;25.85;100.00;101004.97;5117556;28;20034;-80
2021/07/12 06:18:51;;;;;;;17.98;14.80;;;;;;;26.35;100.00;101004.66;5103009;28;20036;-80
2021/07/12 06:21:37;;;;;;;27.30;17.20;;;;;;;26.75;100.00;100996.03;5116747;28;20019;-81
2021/07/12 06:24:22;;;;;;;21.00;16.20;;;;;;;26.79;100.00;100996.66;5103418;28;20023;-79
2021/07/12 06:27:08;;;;;;;20.10;15.48;;;;;;;26.66;100.00;100998.59;5116795;28;20020;-79
2021/07/12 06:29:56;;;;;;;22.52;16.58;;;;;;;26.52;100.00;100996.97;5116803;28;20463;-79
2021/07/12 06:32:42;;;;;;;21.98;16.83;;;;;;;26.57;100.00;100999.31;5102781;28;20035;-79
2021/07/12 06:35:28;;;;;;;26.30;17.38;;;;;;;26.65;100.00;100999.59;5101993;28;20028;-79
2021/07/12 06:38:13;;;;;;;28.92;17.08;;;;;;;26.60;100.00;101004.50;5116849;28;20081;-78
2021/07/12 06:40:59;;;;;;;20.15;15.02;;;;;;;26.86;100.00;100996.06;5102845;28;20035;-79
2021/07/12 06:43:45;;;;;;;26.52;15.65;;;;;;;27.49;100.00;100993.50;5116031;28;20032;-79
2021/07/12 06:46:31;;;;;;;22.33;14.95;;;;;;;27.56;100.00;101001.06;5116397;28;20527;-79
2021/07/12 06:49:16;;;;;;;23.38;15.35;;;;;;;27.56;100.00;100995.69;5103091;28;20062;-79
2021/07/12 06:52:03;;;;;;;21.92;14.63;;;;;;;27.66;100.00;101000.16;5117038;28;20099;-79
2021/07/12 06:54:48;;;;;;;23.20;14.60;;;;;;;27.58;100.00;100994.56;5100926;28;20058;-79
2021/07/12 06:57:34;;;;;;;21.98;15.27;;;;;;;27.52;100.00;100996.94;5101676;28;20024;-79
2021/07/12 07:00:20;;;;;;;19.08;14.38;;;;;;;27.72;100.00;100994.25;5116682;28;20027;-80
2021/07/12 07:03:06;;;;;;;22.40;15.50;;;;;;;27.77;100.00;100989.38;5115102;28;20448;-80
2021/07/12 07:05:52;;;;;;;25.35;15.13;;;;;;;28.32;100.00;100982.84;5102621;28;20063;-79
2021/07/12 07:09:31;;;;;;;22.38;14.38;;;;;;;27.98;100.00;100982.19;5116188;28;20023;-80
2021/07/12 07:12:16;;;;;;;21.05;14.38;;;;;;;27.91;100.00;100982.81;5101913;28;20026;-80
2021/07/12 07:15:12;;;;;;;24.88;15.27;;;;;;;28.42;100.00;100990.00;5115974;28;20395;-80
2021/07/12 07:17:59;;;;;;;21.23;15.38;;;;;;;28.40;100.00;100983.03;5115501;28;20032;-80
2021/07/12 07:20:45;;;;;;;19.95;14.18;;;;;;;28.76;100.00;100986.06;5101925;28;20031;-80
2021/07/12 07:23:31;;;;;;;16.60;13.65;;;;;;;28.81;100.00;100986.50;5116318;28;20069;-80
2021/07/12 07:26:19;;;;;;;22.50;14.02;;;;;;;28.92;100.00;100993.63;5102008;28;20051;-80
2021/07/12 07:29:05;;;;;;;21.00;14.00;;;;;;;28.88;100.00;100995.75;5115605;28;20026;-77
2021/07/12 07:31:51;;;;;;;21.88;14.90;;;;;;;29.19;100.00;100996.59;5117246;27;20039;-78
2021/07/12 07:34:37;;;;;;;16.50;13.82;;;;;;;29.05;100.00;101000.53;5101584;28;20463;-77
2021/07/12 07:37:23;;;;;;;19.65;13.75;;;;;;;29.55;100.00;100998.63;5102339;28;20043;-77
2021/07/12 07:40:09;;;;;;;21.50;16.25;;;;;;;29.30;100.00;101002.75;5118560;28;20051;-78
2021/07/12 07:42:55;;;;;;;22.05;14.55;;;;;;;29.49;100.00;100999.22;5115391;28;20031;-77
2021/07/12 07:45:41;;;;;;;20.23;14.75;;;;;;;29.58;100.00;100999.22;5115395;28;20024;-77
2021/07/12 07:48:27;;;;;;;22.08;14.65;;;;;;;29.62;100.00;101006.06;5115218;28;20023;-78
2021/07/12 07:51:13;;;;;;;18.92;14.23;;;;;;;29.93;100.00;101010.34;5101592;28;20051;-77
2021/07/12 07:53:59;;;;;;;16.63;14.00;;;;;;;30.04;100.00;101004.78;5115220;28;20054;-78
2021/07/12 07:56:44;;;;;;;18.98;14.05;;;;;;;30.26;100.00;101003.66;5101366;28;20132;-77
2021/07/12 07:59:30;;;;;;;21.40;14.43;;;;;;;30.23;100.00;101003.94;5101059;28;20090;-77
2021/07/12 08:02:16;;;;;;;15.82;14.07;;;;;;;30.57;100.00;101002.41;5115360;28;20068;-77
2021/07/12 08:05:03;;;;;;;22.75;14.25;;;;;;;30.80;100.00;100995.69;5115204;28;20023;-77
2021/07/12 08:07:49;;;;;;;20.13;14.20;;;;;;;31.00;100.00;101000.88;5100769;28;20019;-77
2021/07/12 08:10:35;;;;;;;16.52;13.00;;;;;;;31.15;100.00;101004.75;5115446;28;20027;-77
2021/07/12 08:13:21;;;;;;;20.40;13.45;;;;;;;31.17;100.00;101005.47;5114384;28;20024;-79
2021/07/12 08:16:07;;;;;;;19.38;13.30;;;;;;;31.05;100.00;101006.66;5115582;28;20107;-77
2021/07/12 08:18:53;;;;;;;22.80;13.80;;;;;;;30.86;100.00;101009.47;5101086;28;20042;-77
2021/07/12 08:21:38;;;;;;;16.08;12.85;;;;;;;31.19;100.00;101008.84;5114402;28;20023;-78
2021/07/12 08:24:24;;;;;;;16.33;11.50;;;;;;;32.20;96.20;101009.41;5114503;28;20115;-77
2021/07/12 08:27:10;;;;;;;17.05;12.32;;;;;;;31.89;99.82;101010.84;5101010;28;20030;-77
2021/07/12 08:29:56;;;;;;;18.13;12.80;;;;;;;31.82;98.00;101008.94;5114745;28;20050;-77
2021/07/12 08:32:43;;;;;;;18.40;12.52;;;;;;;31.71;93.85;101001.84;5114401;28;20130;-80
2021/07/12 08:35:29;;;;;;;15.85;10.27;;;;;;;31.81;86.29;101004.53;5100054;28;20463;-80
2021/07/12 08:38:16;;;;;;;14.50;10.73;;;;;;;31.93;86.05;101005.97;5114597;28;20023;-80
2021/07/12 08:41:02;;;;;;;15.13;11.00;;;;;;;32.14;86.25;100993.75;5114890;28;20031;-80
2021/07/12 08:43:48;;;;;;;12.05;10.80;;;;;;;32.14;84.73;100988.34;5101034;28;20476;-80
2021/07/12 08:46:34;;;;;;;12.23;10.82;;;;;;;32.39;87.33;100989.41;5100420;28;20027;-80
2021/07/12 08:49:20;;;;;;;13.85;11.55;;;;;;;32.56;87.49;100988.50;5114599;28;20123;-80
2021/07/12 08:52:06;;;;;;;18.02;10.77;;;;;;;32.39;75.10;100983.97;5114266;28;20108;-79
2021/07/12 08:54:52;;;;;;;13.90;10.60;;;;;;;32.30;83.22;100984.94;5114173;28;20376;-80
2021/07/12 08:57:38;;;;;;;17.67;11.43;;;;;;;32.25;87.12;100990.81;5114740;28;20024;-77
2021/07/12 09:00:44;;;;;;;15.68;12.05;;;;;;;32.50;87.25;100984.56;5113848;28;20035;-77
2021/07/12 09:03:36;;;;;;;14.30;10.80;;;;;;;32.55;86.85;100982.22;5099578;28;20026;-78
2021/07/12 09:06:34;;;;;;;15.15;11.65;;;;;;;32.86;87.39;100986.13;5100262;28;20448;-79
2021/07/12 09:13:05;;;;;;;13.15;11.15;;;;;;;33.40;82.98;100980.25;5013508;28;20458;-77
2021/07/12 09:15:51;;;;;;;20.77;12.20;;;;;;;33.29;83.60;100982.38;5013622;28;20431;-79
2021/07/12 09:19:03;;;;;;;19.27;12.30;;;;;;;33.25;84.99;100981.88;5012738;28;20497;-81
2021/07/12 09:22:03;;;;;;;17.10;12.23;;;;;;;33.12;88.26;100980.63;4998747;28;20131;-80
2021/07/12 09:24:56;;;;;;;17.17;11.18;;;;;;;33.41;77.26;100987.38;5107419;28;20024;-80
2021/07/12 09:27:42;;;;;;;19.38;11.93;;;;;;;33.48;81.93;100979.41;5118565;28;20027;-80
2021/07/12 09:30:33;;;;;;;20.92;12.77;;;;;;;33.40;84.45;100979.41;5117432;28;20046;-80
2021/07/12 09:33:22;;;;;;;17.45;12.38;;;;;;;33.16;89.37;100982.00;5117418;28;20047;-81
2021/07/12 09:36:17;;;;;;;17.17;12.55;;;;;;;33.74;84.50;100983.69;5118145;28;20028;-81
2021/07/12 09:39:36;;;;;;;14.07;11.05;;;;;;;33.45;79.08;100982.44;5103818;28;20019;-80
2021/07/12 09:42:33;;;;;;;19.25;12.43;;;;;;;33.65;80.68;100992.00;5017553;28;20113;-80
2021/07/12 09:45:24;;;;;;;15.02;10.77;;;;;;;32.86;77.65;100985.31;5064574;28;20035;-80
2021/07/12 09:48:10;;;;;;;10.95;9.18;;;;;;;32.96;68.51;100991.44;5116950;28;20028;-80
2021/07/12 09:50:56;;;;;;;11.88;9.55;;;;;;;33.27;70.93;100995.28;5103856;28;20027;-80
2021/07/12 09:53:42;;;;;;;13.48;9.57;;;;;;;32.33;74.70;100998.16;5117061;28;20028;-80
2021/07/12 09:56:28;;;;;;;9.93;8.88;;;;;;;33.16;69.60;100987.44;5102963;28;20124;-81
2021/07/12 09:59:15;;;;;;;12.13;10.15;;;;;;;33.28;71.60;100995.13;5104714;27;20515;-80
2021/07/12 10:02:02;;;;;;;11.10;9.35;;;;;;;33.41;66.35;100992.81;5102083;28;20061;-80
2021/07/12 10:04:51;;;;;;;9.32;7.80;;;;;;;33.42;61.05;100999.94;5103050;28;20464;-80
2021/07/12 10:07:37;;;;;;;11.98;9.65;;;;;;;33.70;65.10;100992.34;5117608;28;20032;-80
2021/07/12 10:10:23;;;;;;;9.75;8.75;;;;;;;33.03;60.26;101001.47;5117617;28;20028;-80
2021/07/12 10:13:10;;;;;;;13.07;9.27;;;;;;;32.69;67.55;100997.91;5103350;28;20474;-79
2021/07/12 10:15:59;;;;;;;14.95;9.93;;;;;;;33.10;70.07;100993.56;5118967;27;20032;-79
2021/07/12 10:18:45;;;;;;;17.52;9.65;;;;;;;33.27;68.69;100992.59;5117694;28;20031;-78
2021/07/12 10:22:03;;;;;;;12.20;8.63;;;;;;;33.22;60.15;100994.94;5116798;28;20027;-78
2021/07/12 10:24:52;;;;;;;9.13;6.05;;;;;;;32.64;49.07;100992.13;5102055;28;20059;-78
2021/07/12 10:28:01;;;;;;;6.97;6.07;;;;;;;33.08;47.47;100999.16;5120536;27;20047;-80
2021/07/12 10:30:49;;;;;;;8.82;6.70;;;;;;;32.82;49.80;100992.91;5120134;27;20032;-79
2021/07/12 10:33:35;;;;;;;9.68;7.88;;;;;;;33.24;53.59;100990.19;5118363;28;20046;-81
2021/07/12 10:36:40;;;;;;;8.32;6.88;;;;;;;33.46;50.87;100984.16;5116301;28;20364;-80
2021/07/12 10:40:05;;;;;;;10.38;6.40;;;;;;;33.37;47.93;100983.31;5117028;28;20035;-80
2021/07/12 10:42:53;;;;;;;9.02;6.38;;;;;;;33.32;47.60;100979.38;5098260;28;20122;-79
2021/07/12 10:45:40;;;;;;;8.73;6.45;;;;;;;32.57;47.49;100979.31;5117267;28;20023;-78
2021/07/12 10:48:34;;;;;;;8.07;6.82;;;;;;;32.97;44.99;100968.69;5117148;28;20019;-80
2021/07/12 10:51:34;;;;;;;9.32;6.43;;;;;;;33.61;45.90;100974.31;5101828;28;20035;-80
2021/07/12 10:54:22;;;;;;;8.45;5.45;;;;;;;33.62;42.20;100966.00;5116418;28;20405;-80
2021/07/12 10:57:16;;;;;;;8.95;6.78;;;;;;;33.59;44.18;100962.78;5117713;27;20089;-79
2021/07/12 11:00:10;;;;;;;7.93;5.55;;;;;;;33.76;41.63;100967.22;5116818;28;20024;-80
2021/07/12 11:02:55;;;;;;;6.95;5.95;;;;;;;33.65;41.47;100965.69;5101189;28;20023;-80
2021/07/12 11:05:51;;;;;;;9.07;5.65;;;;;;;33.73;41.51;100960.25;5115888;28;20394;-80
2021/07/12 11:09:00;;;;;;;11.20;6.70;;;;;;;33.69;44.20;100963.47;5116209;28;20089;-79
2021/07/12 11:11:46;;;;;;;10.27;6.20;;;;;;;33.92;41.96;100961.81;5115956;28;20081;-77
2021/07/12 11:14:31;;;;;;;8.27;5.40;;;;;;;34.25;39.11;100960.75;5116158;28;20118;-79
2021/07/12 11:17:50;;;;;;;5.55;5.05;;;;;;;33.76;36.93;100959.06;5116645;28;20032;-80
2021/07/12 11:20:38;;;;;;;7.10;5.53;;;;;;;34.10;37.85;100966.03;5116195;28;20031;-80
2021/07/12 11:23:56;;;;;;;6.65;5.00;;;;;;;33.98;37.54;100969.28;5103016;27;20027;-80
2021/07/12 11:26:44;;;;;;;6.18;5.18;;;;;;;34.15;38.13;100962.81;5115610;28;20406;-80
2021/07/12 11:29:33;;;;;;;10.88;5.85;;;;;;;34.73;38.16;100953.34;5116170;28;20126;-80
2021/07/12 11:32:35;;;;;;;7.07;5.97;;;;;;;34.61;38.79;100954.75;5102525;28;20024;-80
2021/07/12 11:35:24;;;;;;;8.00;6.30;;;;;;;33.83;40.05;100957.41;5115714;28;20127;-80
2021/07/12 11:38:10;;;;;;;7.70;6.10;;;;;;;33.85;39.92;100947.19;5116028;28;20038;-80
2021/07/12 11:41:06;;;;;;;8.82;6.03;;;;;;;34.21;39.79;100943.06;5115736;28;20337;-80
2021/07/12 11:44:09;;;;;;;8.68;5.97;;;;;;;34.72;39.19;100942.63;5115713;28;20031;-80
2021/07/12 11:46:58;;;;;;;8.55;6.85;;;;;;;34.80;38.63;100940.72;5115528;28;20031;-80
2021/07/12 11:49:56;;;;;;;10.30;6.55;;;;;;;34.86;38.84;100940.03;5102030;28;20035;-80
2021/07/12 11:52:45;;;;;;;10.70;7.43;;;;;;;35.05;38.62;100928.72;5102062;28;20368;-80
2021/07/12 11:55:39;;;;;;;9.13;6.18;;;;;;;34.89;37.84;100928.81;5100874;28;20054;-80
2021/07/12 11:58:25;;;;;;;9.52;6.55;;;;;;;35.15;39.46;100928.47;5115758;28;20034;-79
2021/07/12 12:01:19;;;;;;;8.73;6.55;;;;;;;33.84;40.09;100921.03;5115658;28;20340;-79
2021/07/12 12:04:05;;;;;;;9.18;6.25;;;;;;;34.28;39.83;100920.44;5115974;28;20019;-80
2021/07/12 12:06:51;;;;;;;20.02;16.95;;;;;;;34.68;41.63;100925.78;5115010;28;20088;-78
2021/07/12 12:10:03;;;;;;;9.40;8.15;;;;;;;35.02;41.50;100914.59;5101123;28;20034;-81
2021/07/12 12:12:54;;;;;;;14.75;9.60;;;;;;;34.91;42.42;100925.88;5100804;28;20511;-80
2021/07/12 12:15:46;;;;;;;11.85;7.50;;;;;;;35.22;42.11;100921.28;5114544;28;20023;-80
2021/07/12 12:18:39;;;;;;;12.20;7.25;;;;;;;35.45;44.01;100915.88;5100858;28;20156;-80
2021/07/12 12:21:38;;;;;;;10.20;7.82;;;;;;;34.81;43.55;100915.22;5114840;28;20062;-79
2021/07/12 12:24:56;;;;;;;9.63;7.20;;;;;;;35.22;43.47;100925.91;5114676;28;20023;-79
2021/07/12 12:27:45;;;;;;;9.25;7.90;;;;;;;34.14;45.48;100912.13;5101009;28;20024;-77
2021/07/12 12:30:33;;;;;;;14.27;7.63;;;;;;;34.80;46.22;100918.94;5115107;28;20491;-80
2021/07/12 12:33:28;;;;;;;11.80;7.70;;;;;;;35.32;43.94;100911.03;5100494;28;20035;-80
2021/07/12 12:36:19;;;;;;;13.07;7.68;;;;;;;35.21;43.95;100911.41;5114275;28;20122;-80
2021/07/12 12:39:13;;;;;;;9.77;8.50;;;;;;;35.94;42.16;100906.25;5114899;28;20063;-80
2021/07/12 12:42:00;;;;;;;12.23;8.75;;;;;;;34.93;44.42;100904.78;5102422;28;20024;-79
2021/07/12 12:44:46;;;;;;;13.15;9.02;;;;;;;35.00;44.71;100897.59;5101112;28;20046;-80
2021/07/12 12:47:32;;;;;;;12.57;8.63;;;;;;;35.28;44.76;100887.00;5100481;28;20080;-80
2021/07/12 12:50:19;;;;;;;10.30;8.32;;;;;;;34.79;46.77;100886.41;5101240;28;20104;-80
2021/07/12 12:53:07;;;;;;;9.25;8.18;;;;;;;35.05;47.06;100887.84;5100605;28;20119;-77